sensor_id;sensor_type;location;lat;lon;timestamp;P1;durP1;ratioP1;P2;durP2;ratioP2
55933;SDS011;41839;41.386;2.082;2023-03-16T00:00:23;828.15;;;743.00;;
55933;SDS011;41839;41.386;2.082;2023-03-16T00:02:49;799.22;;;715.88;;
55933;SDS011;41839;41.386;2.082;2023-03-16T00:05:14;790.53;;;706.90;;
55933;SDS011;41839;41.386;2.082;2023-03-16T00:07:41;789.92;;;705.95;;
55933;SDS011;41839;41.386;2.082;2023-03-16T00:10:07;791.08;;;708.05;;
55933;SDS011;41839;41.386;2.082;2023-03-16T00:12:36;798.92;;;715.55;;
55933;SDS011;41839;41.386;2.082;2023-03-16T00:15:02;797.83;;;714.78;;
55933;SDS011;41839;41.386;2.082;2023-03-16T00:17:28;818.10;;;733.15;;
55933;SDS011;41839;41.386;2.082;2023-03-16T00:19:54;811.72;;;728.40;;
55933;SDS011;41839;41.386;2.082;2023-03-16T00:22:28;815.85;;;733.58;;
55933;SDS011;41839;41.386;2.082;2023-03-16T00:24:55;807.75;;;724.30;;
55933;SDS011;41839;41.386;2.082;2023-03-16T00:27:22;824.33;;;739.37;;
55933;SDS011;41839;41.386;2.082;2023-03-16T00:32:20;810.90;;;726.35;;
55933;SDS011;41839;41.386;2.082;2023-03-16T00:34:49;774.40;;;692.03;;
55933;SDS011;41839;41.386;2.082;2023-03-16T00:37:16;795.95;;;712.30;;
55933;SDS011;41839;41.386;2.082;2023-03-16T00:39:44;802.33;;;718.22;;
55933;SDS011;41839;41.386;2.082;2023-03-16T00:42:11;781.95;;;700.30;;
55933;SDS011;41839;41.386;2.082;2023-03-16T00:44:38;775.45;;;693.63;;
55933;SDS011;41839;41.386;2.082;2023-03-16T00:47:06;806.28;;;724.08;;
55933;SDS011;41839;41.386;2.082;2023-03-16T00:49:32;807.88;;;724.03;;
55933;SDS011;41839;41.386;2.082;2023-03-16T00:52:02;824.47;;;740.70;;
55933;SDS011;41839;41.386;2.082;2023-03-16T00:54:29;828.40;;;743.65;;
55933;SDS011;41839;41.386;2.082;2023-03-16T00:56:58;807.92;;;723.55;;
55933;SDS011;41839;41.386;2.082;2023-03-16T00:59:25;817.70;;;732.83;;
55933;SDS011;41839;41.386;2.082;2023-03-16T01:01:54;798.35;;;715.38;;
55933;SDS011;41839;41.386;2.082;2023-03-16T01:04:20;791.17;;;708.00;;
55933;SDS011;41839;41.386;2.082;2023-03-16T01:06:47;787.05;;;704.97;;
55933;SDS011;41839;41.386;2.082;2023-03-16T01:09:13;786.65;;;704.97;;
55933;SDS011;41839;41.386;2.082;2023-03-16T01:11:39;793.03;;;710.67;;
55933;SDS011;41839;41.386;2.082;2023-03-16T01:14:09;794.60;;;711.80;;
55933;SDS011;41839;41.386;2.082;2023-03-16T01:16:35;797.42;;;714.92;;
55933;SDS011;41839;41.386;2.082;2023-03-16T01:19:00;825.83;;;740.40;;
55933;SDS011;41839;41.386;2.082;2023-03-16T01:21:26;794.60;;;710.50;;
55933;SDS011;41839;41.386;2.082;2023-03-16T01:23:52;787.35;;;704.92;;
55933;SDS011;41839;41.386;2.082;2023-03-16T01:26:18;798.47;;;715.65;;
55933;SDS011;41839;41.386;2.082;2023-03-16T01:28:45;810.67;;;727.08;;
55933;SDS011;41839;41.386;2.082;2023-03-16T01:31:11;795.97;;;713.03;;
55933;SDS011;41839;41.386;2.082;2023-03-16T01:33:38;803.90;;;721.50;;
55933;SDS011;41839;41.386;2.082;2023-03-16T01:38:33;821.30;;;737.40;;
55933;SDS011;41839;41.386;2.082;2023-03-16T01:40:59;801.53;;;719.55;;
55933;SDS011;41839;41.386;2.082;2023-03-16T01:43:26;798.78;;;716.92;;
55933;SDS011;41839;41.386;2.082;2023-03-16T01:51:53;799.53;;;716.42;;
55933;SDS011;41839;41.386;2.082;2023-03-16T01:57:10;787.70;;;704.47;;
55933;SDS011;41839;41.386;2.082;2023-03-16T02:00:05;816.65;;;731.92;;
55933;SDS011;41839;41.386;2.082;2023-03-16T02:02:42;788.50;;;704.83;;
55933;SDS011;41839;41.386;2.082;2023-03-16T02:05:14;805.70;;;720.97;;
55933;SDS011;41839;41.386;2.082;2023-03-16T02:07:47;797.63;;;713.58;;
55933;SDS011;41839;41.386;2.082;2023-03-16T02:10:15;780.60;;;696.95;;
55933;SDS011;41839;41.386;2.082;2023-03-16T02:12:43;784.60;;;701.05;;
55933;SDS011;41839;41.386;2.082;2023-03-16T02:15:19;787.17;;;706.37;;
55933;SDS011;41839;41.386;2.082;2023-03-16T02:17:51;766.35;;;685.03;;
55933;SDS011;41839;41.386;2.082;2023-03-16T02:23:04;781.17;;;699.25;;
55933;SDS011;41839;41.386;2.082;2023-03-16T02:25:49;778.42;;;697.53;;
55933;SDS011;41839;41.386;2.082;2023-03-16T02:31:00;783.22;;;701.30;;
55933;SDS011;41839;41.386;2.082;2023-03-16T02:33:27;784.20;;;702.07;;
55933;SDS011;41839;41.386;2.082;2023-03-16T02:35:54;776.47;;;694.40;;
55933;SDS011;41839;41.386;2.082;2023-03-16T02:38:19;787.40;;;704.53;;
55933;SDS011;41839;41.386;2.082;2023-03-16T02:40:45;784.45;;;701.85;;
55933;SDS011;41839;41.386;2.082;2023-03-16T02:43:23;782.35;;;698.50;;
55933;SDS011;41839;41.386;2.082;2023-03-16T02:45:54;785.47;;;701.63;;
55933;SDS011;41839;41.386;2.082;2023-03-16T02:48:32;800.70;;;716.70;;
55933;SDS011;41839;41.386;2.082;2023-03-16T02:51:12;783.42;;;701.17;;
55933;SDS011;41839;41.386;2.082;2023-03-16T02:53:37;755.72;;;675.45;;
55933;SDS011;41839;41.386;2.082;2023-03-16T02:56:03;766.45;;;685.78;;
55933;SDS011;41839;41.386;2.082;2023-03-16T02:58:29;762.15;;;682.13;;
55933;SDS011;41839;41.386;2.082;2023-03-16T03:00:56;783.60;;;702.08;;
55933;SDS011;41839;41.386;2.082;2023-03-16T03:03:21;801.45;;;718.67;;
55933;SDS011;41839;41.386;2.082;2023-03-16T03:05:47;769.50;;;687.20;;
55933;SDS011;41839;41.386;2.082;2023-03-16T03:08:13;790.47;;;707.13;;
55933;SDS011;41839;41.386;2.082;2023-03-16T03:10:39;772.00;;;690.42;;
55933;SDS011;41839;41.386;2.082;2023-03-16T03:13:04;767.70;;;686.97;;
55933;SDS011;41839;41.386;2.082;2023-03-16T03:15:31;779.67;;;698.47;;
55933;SDS011;41839;41.386;2.082;2023-03-16T03:17:57;782.38;;;701.05;;
55933;SDS011;41839;41.386;2.082;2023-03-16T03:20:23;797.97;;;716.35;;
55933;SDS011;41839;41.386;2.082;2023-03-16T03:22:49;787.05;;;704.80;;
55933;SDS011;41839;41.386;2.082;2023-03-16T03:25:16;783.40;;;703.28;;
55933;SDS011;41839;41.386;2.082;2023-03-16T03:27:43;751.07;;;675.57;;
55933;SDS011;41839;41.386;2.082;2023-03-16T03:30:10;765.78;;;687.65;;
55933;SDS011;41839;41.386;2.082;2023-03-16T03:32:38;776.75;;;697.63;;
55933;SDS011;41839;41.386;2.082;2023-03-16T03:35:05;765.00;;;685.17;;
55933;SDS011;41839;41.386;2.082;2023-03-16T03:37:31;780.10;;;699.30;;
55933;SDS011;41839;41.386;2.082;2023-03-16T03:39:56;781.80;;;699.90;;
55933;SDS011;41839;41.386;2.082;2023-03-16T03:42:22;768.38;;;696.95;;
55933;SDS011;41839;41.386;2.082;2023-03-16T03:44:48;784.17;;;706.00;;
55933;SDS011;41839;41.386;2.082;2023-03-16T03:47:17;756.78;;;682.67;;
55933;SDS011;41839;41.386;2.082;2023-03-16T03:49:43;749.47;;;676.13;;
55933;SDS011;41839;41.386;2.082;2023-03-16T03:52:09;724.42;;;655.72;;
55933;SDS011;41839;41.386;2.082;2023-03-16T03:54:35;754.92;;;681.63;;
55933;SDS011;41839;41.386;2.082;2023-03-16T03:57:01;749.65;;;674.33;;
55933;SDS011;41839;41.386;2.082;2023-03-16T03:59:27;753.58;;;683.17;;
55933;SDS011;41839;41.386;2.082;2023-03-16T04:01:52;772.53;;;698.75;;
55933;SDS011;41839;41.386;2.082;2023-03-16T04:04:18;762.28;;;692.33;;
55933;SDS011;41839;41.386;2.082;2023-03-16T04:06:44;753.60;;;686.05;;
55933;SDS011;41839;41.386;2.082;2023-03-16T04:09:10;752.15;;;681.00;;
55933;SDS011;41839;41.386;2.082;2023-03-16T04:11:36;738.65;;;666.72;;
55933;SDS011;41839;41.386;2.082;2023-03-16T04:14:02;743.05;;;672.83;;
55933;SDS011;41839;41.386;2.082;2023-03-16T04:16:28;764.85;;;694.63;;
55933;SDS011;41839;41.386;2.082;2023-03-16T04:18:54;746.22;;;675.67;;
55933;SDS011;41839;41.386;2.082;2023-03-16T04:21:20;749.20;;;677.00;;
55933;SDS011;41839;41.386;2.082;2023-03-16T04:23:47;770.90;;;696.78;;
55933;SDS011;41839;41.386;2.082;2023-03-16T04:26:13;739.42;;;667.85;;
55933;SDS011;41839;41.386;2.082;2023-03-16T04:28:39;757.97;;;685.55;;
55933;SDS011;41839;41.386;2.082;2023-03-16T04:31:05;739.92;;;668.65;;
55933;SDS011;41839;41.386;2.082;2023-03-16T04:33:33;730.55;;;661.92;;
55933;SDS011;41839;41.386;2.082;2023-03-16T04:35:59;761.78;;;689.08;;
55933;SDS011;41839;41.386;2.082;2023-03-16T04:38:26;764.38;;;688.92;;
55933;SDS011;41839;41.386;2.082;2023-03-16T04:40:53;736.30;;;669.70;;
55933;SDS011;41839;41.386;2.082;2023-03-16T04:43:18;753.60;;;687.15;;
55933;SDS011;41839;41.386;2.082;2023-03-16T04:45:44;735.45;;;670.97;;
55933;SDS011;41839;41.386;2.082;2023-03-16T04:48:09;722.72;;;660.47;;
55933;SDS011;41839;41.386;2.082;2023-03-16T04:50:35;717.33;;;653.08;;
55933;SDS011;41839;41.386;2.082;2023-03-16T04:53:01;723.22;;;656.80;;
55933;SDS011;41839;41.386;2.082;2023-03-16T04:57:53;722.53;;;653.33;;
55933;SDS011;41839;41.386;2.082;2023-03-16T05:00:19;709.83;;;640.35;;
55933;SDS011;41839;41.386;2.082;2023-03-16T05:02:46;736.08;;;666.67;;
55933;SDS011;41839;41.386;2.082;2023-03-16T05:05:12;719.67;;;653.10;;
55933;SDS011;41839;41.386;2.082;2023-03-16T05:07:39;731.45;;;666.72;;
55933;SDS011;41839;41.386;2.082;2023-03-16T05:10:06;737.25;;;671.80;;
55933;SDS011;41839;41.386;2.082;2023-03-16T05:12:36;729.72;;;668.05;;
55933;SDS011;41839;41.386;2.082;2023-03-16T05:15:01;739.47;;;677.13;;
55933;SDS011;41839;41.386;2.082;2023-03-16T05:17:27;736.03;;;672.97;;
55933;SDS011;41839;41.386;2.082;2023-03-16T05:19:53;720.13;;;657.33;;
55933;SDS011;41839;41.386;2.082;2023-03-16T05:22:18;741.97;;;679.13;;
55933;SDS011;41839;41.386;2.082;2023-03-16T05:24:44;737.03;;;673.15;;
55933;SDS011;41839;41.386;2.082;2023-03-16T05:27:09;741.25;;;676.67;;
55933;SDS011;41839;41.386;2.082;2023-03-16T05:29:35;746.88;;;681.17;;
55933;SDS011;41839;41.386;2.082;2023-03-16T05:32:00;748.70;;;681.40;;
55933;SDS011;41839;41.386;2.082;2023-03-16T05:34:26;751.13;;;682.30;;
55933;SDS011;41839;41.386;2.082;2023-03-16T05:36:52;755.83;;;685.75;;
55933;SDS011;41839;41.386;2.082;2023-03-16T05:39:17;746.80;;;676.03;;
55933;SDS011;41839;41.386;2.082;2023-03-16T05:41:43;736.72;;;664.50;;
55933;SDS011;41839;41.386;2.082;2023-03-16T05:44:08;749.33;;;674.97;;
55933;SDS011;41839;41.386;2.082;2023-03-16T05:46:34;760.30;;;684.50;;
55933;SDS011;41839;41.386;2.082;2023-03-16T05:49:00;760.83;;;683.50;;
55933;SDS011;41839;41.386;2.082;2023-03-16T05:51:26;724.58;;;650.80;;
55933;SDS011;41839;41.386;2.082;2023-03-16T05:53:52;758.55;;;681.30;;
55933;SDS011;41839;41.386;2.082;2023-03-16T05:56:24;750.53;;;675.20;;
55933;SDS011;41839;41.386;2.082;2023-03-16T05:58:52;753.35;;;675.38;;
55933;SDS011;41839;41.386;2.082;2023-03-16T06:01:20;747.15;;;669.72;;
55933;SDS011;41839;41.386;2.082;2023-03-16T06:03:47;752.88;;;674.38;;
55933;SDS011;41839;41.386;2.082;2023-03-16T06:06:14;745.47;;;667.60;;
55933;SDS011;41839;41.386;2.082;2023-03-16T06:11:06;750.67;;;669.53;;
55933;SDS011;41839;41.386;2.082;2023-03-16T06:13:32;750.08;;;670.00;;
55933;SDS011;41839;41.386;2.082;2023-03-16T06:15:57;770.47;;;689.58;;
55933;SDS011;41839;41.386;2.082;2023-03-16T06:18:22;776.53;;;694.63;;
55933;SDS011;41839;41.386;2.082;2023-03-16T06:20:48;734.78;;;655.58;;
55933;SDS011;41839;41.386;2.082;2023-03-16T06:23:13;723.88;;;646.45;;
55933;SDS011;41839;41.386;2.082;2023-03-16T06:25:39;728.42;;;650.88;;
55933;SDS011;41839;41.386;2.082;2023-03-16T06:28:05;713.97;;;636.42;;
55933;SDS011;41839;41.386;2.082;2023-03-16T06:30:31;742.15;;;662.67;;
55933;SDS011;41839;41.386;2.082;2023-03-16T06:32:57;730.38;;;650.97;;
55933;SDS011;41839;41.386;2.082;2023-03-16T06:35:24;737.38;;;658.08;;
55933;SDS011;41839;41.386;2.082;2023-03-16T06:37:50;727.90;;;650.65;;
55933;SDS011;41839;41.386;2.082;2023-03-16T06:40:16;730.38;;;658.00;;
55933;SDS011;41839;41.386;2.082;2023-03-16T06:42:41;736.33;;;668.30;;
55933;SDS011;41839;41.386;2.082;2023-03-16T06:45:08;719.65;;;648.33;;
55933;SDS011;41839;41.386;2.082;2023-03-16T06:47:35;745.05;;;672.72;;
55933;SDS011;41839;41.386;2.082;2023-03-16T06:50:01;740.22;;;666.70;;
55933;SDS011;41839;41.386;2.082;2023-03-16T06:52:26;750.60;;;676.53;;
55933;SDS011;41839;41.386;2.082;2023-03-16T06:54:52;746.83;;;668.95;;
55933;SDS011;41839;41.386;2.082;2023-03-16T06:57:17;737.85;;;663.83;;
55933;SDS011;41839;41.386;2.082;2023-03-16T06:59:43;745.72;;;666.83;;
55933;SDS011;41839;41.386;2.082;2023-03-16T07:02:10;760.83;;;682.42;;
55933;SDS011;41839;41.386;2.082;2023-03-16T07:04:37;756.70;;;677.25;;
55933;SDS011;41839;41.386;2.082;2023-03-16T07:07:03;763.35;;;685.15;;
55933;SDS011;41839;41.386;2.082;2023-03-16T07:09:29;755.53;;;678.65;;
55933;SDS011;41839;41.386;2.082;2023-03-16T07:11:54;756.92;;;684.40;;
55933;SDS011;41839;41.386;2.082;2023-03-16T07:14:20;762.25;;;689.60;;
55933;SDS011;41839;41.386;2.082;2023-03-16T07:16:47;761.03;;;692.28;;
55933;SDS011;41839;41.386;2.082;2023-03-16T07:19:12;748.65;;;673.95;;
55933;SDS011;41839;41.386;2.082;2023-03-16T07:21:38;776.67;;;698.38;;
55933;SDS011;41839;41.386;2.082;2023-03-16T07:24:05;752.70;;;680.40;;
55933;SDS011;41839;41.386;2.082;2023-03-16T07:26:32;752.70;;;680.92;;
55933;SDS011;41839;41.386;2.082;2023-03-16T07:28:58;791.88;;;716.53;;
55933;SDS011;41839;41.386;2.082;2023-03-16T07:31:23;786.50;;;713.05;;
55933;SDS011;41839;41.386;2.082;2023-03-16T07:33:49;788.47;;;714.00;;
55933;SDS011;41839;41.386;2.082;2023-03-16T07:36:15;780.90;;;706.08;;
55933;SDS011;41839;41.386;2.082;2023-03-16T07:38:40;810.33;;;732.47;;
55933;SDS011;41839;41.386;2.082;2023-03-16T07:41:06;813.08;;;735.90;;
55933;SDS011;41839;41.386;2.082;2023-03-16T07:43:32;813.78;;;738.83;;
55933;SDS011;41839;41.386;2.082;2023-03-16T07:45:57;788.47;;;715.63;;
55933;SDS011;41839;41.386;2.082;2023-03-16T07:48:23;785.75;;;715.15;;
55933;SDS011;41839;41.386;2.082;2023-03-16T07:50:48;793.90;;;723.40;;
55933;SDS011;41839;41.386;2.082;2023-03-16T07:53:14;808.67;;;738.58;;
55933;SDS011;41839;41.386;2.082;2023-03-16T07:55:41;820.17;;;750.63;;
55933;SDS011;41839;41.386;2.082;2023-03-16T07:58:07;817.55;;;747.70;;
55933;SDS011;41839;41.386;2.082;2023-03-16T08:03:00;791.65;;;723.17;;
55933;SDS011;41839;41.386;2.082;2023-03-16T08:05:26;793.40;;;727.47;;
55933;SDS011;41839;41.386;2.082;2023-03-16T08:07:51;811.47;;;746.00;;
55933;SDS011;41839;41.386;2.082;2023-03-16T08:10:17;816.00;;;750.40;;
55933;SDS011;41839;41.386;2.082;2023-03-16T08:12:43;833.17;;;765.00;;
55933;SDS011;41839;41.386;2.082;2023-03-16T08:15:09;818.90;;;751.80;;
55933;SDS011;41839;41.386;2.082;2023-03-16T08:17:35;836.30;;;767.28;;
55933;SDS011;41839;41.386;2.082;2023-03-16T08:20:04;843.75;;;772.58;;
55933;SDS011;41839;41.386;2.082;2023-03-16T08:22:35;843.92;;;770.83;;
55933;SDS011;41839;41.386;2.082;2023-03-16T08:25:01;863.10;;;788.88;;
55933;SDS011;41839;41.386;2.082;2023-03-16T08:27:27;839.70;;;770.63;;
55933;SDS011;41839;41.386;2.082;2023-03-16T08:29:53;853.22;;;783.97;;
55933;SDS011;41839;41.386;2.082;2023-03-16T08:32:19;834.83;;;766.25;;
55933;SDS011;41839;41.386;2.082;2023-03-16T08:34:44;866.17;;;795.55;;
55933;SDS011;41839;41.386;2.082;2023-03-16T08:37:11;866.55;;;796.88;;
55933;SDS011;41839;41.386;2.082;2023-03-16T08:39:39;868.28;;;800.03;;
55933;SDS011;41839;41.386;2.082;2023-03-16T08:42:06;853.55;;;785.42;;
55933;SDS011;41839;41.386;2.082;2023-03-16T08:44:32;855.65;;;786.92;;
55933;SDS011;41839;41.386;2.082;2023-03-16T08:46:58;864.22;;;795.33;;
55933;SDS011;41839;41.386;2.082;2023-03-16T08:49:24;868.22;;;800.25;;
55933;SDS011;41839;41.386;2.082;2023-03-16T08:51:49;838.67;;;772.65;;
55933;SDS011;41839;41.386;2.082;2023-03-16T08:54:15;886.22;;;816.97;;
55933;SDS011;41839;41.386;2.082;2023-03-16T08:56:41;874.13;;;817.88;;
55933;SDS011;41839;41.386;2.082;2023-03-16T08:59:07;876.03;;;819.60;;
55933;SDS011;41839;41.386;2.082;2023-03-16T09:01:33;862.25;;;806.50;;
55933;SDS011;41839;41.386;2.082;2023-03-16T09:03:58;864.95;;;811.42;;
55933;SDS011;41839;41.386;2.082;2023-03-16T09:06:25;881.50;;;825.58;;
55933;SDS011;41839;41.386;2.082;2023-03-16T09:08:51;859.63;;;806.50;;
55933;SDS011;41839;41.386;2.082;2023-03-16T09:11:18;884.20;;;830.43;;
55933;SDS011;41839;41.386;2.082;2023-03-16T09:13:44;859.97;;;805.90;;
55933;SDS011;41839;41.386;2.082;2023-03-16T09:16:10;897.78;;;840.20;;
55933;SDS011;41839;41.386;2.082;2023-03-16T09:18:37;903.47;;;846.28;;
55933;SDS011;41839;41.386;2.082;2023-03-16T09:21:05;899.92;;;841.90;;
55933;SDS011;41839;41.386;2.082;2023-03-16T09:23:31;893.45;;;835.92;;
55933;SDS011;41839;41.386;2.082;2023-03-16T09:26:01;881.70;;;824.15;;
55933;SDS011;41839;41.386;2.082;2023-03-16T09:28:30;897.60;;;839.17;;
55933;SDS011;41839;41.386;2.082;2023-03-16T09:33:23;875.35;;;816.30;;
55933;SDS011;41839;41.386;2.082;2023-03-16T09:35:51;896.80;;;833.92;;
55933;SDS011;41839;41.386;2.082;2023-03-16T09:38:17;926.28;;;860.58;;
55933;SDS011;41839;41.386;2.082;2023-03-16T09:40:44;938.60;;;871.40;;
55933;SDS011;41839;41.386;2.082;2023-03-16T09:46:10;911.92;;;848.03;;
55933;SDS011;41839;41.386;2.082;2023-03-16T09:48:46;938.22;;;873.08;;
55933;SDS011;41839;41.386;2.082;2023-03-16T09:51:16;938.95;;;873.30;;
55933;SDS011;41839;41.386;2.082;2023-03-16T09:53:46;934.65;;;869.92;;
55933;SDS011;41839;41.386;2.082;2023-03-16T09:56:28;933.28;;;868.05;;
55933;SDS011;41839;41.386;2.082;2023-03-16T09:59:00;928.65;;;862.85;;
55933;SDS011;41839;41.386;2.082;2023-03-16T10:01:39;941.65;;;873.95;;
55933;SDS011;41839;41.386;2.082;2023-03-16T10:06:59;957.75;;;883.88;;
55933;SDS011;41839;41.386;2.082;2023-03-16T10:09:52;962.20;;;885.15;;
55933;SDS011;41839;41.386;2.082;2023-03-16T10:12:28;962.78;;;884.75;;
55933;SDS011;41839;41.386;2.082;2023-03-16T10:15:06;963.15;;;885.08;;
55933;SDS011;41839;41.386;2.082;2023-03-16T10:20:04;959.25;;;882.40;;
55933;SDS011;41839;41.386;2.082;2023-03-16T10:22:43;986.30;;;908.00;;
55933;SDS011;41839;41.386;2.082;2023-03-16T10:25:15;983.70;;;907.65;;
55933;SDS011;41839;41.386;2.082;2023-03-16T10:27:47;1006.97;;;929.93;;
55933;SDS011;41839;41.386;2.082;2023-03-16T10:32:45;974.33;;;894.75;;
55933;SDS011;41839;41.386;2.082;2023-03-16T10:38:26;1004.78;;;920.65;;
55933;SDS011;41839;41.386;2.082;2023-03-16T10:40:52;1042.03;;;949.45;;
55933;SDS011;41839;41.386;2.082;2023-03-16T10:43:18;1031.97;;;930.72;;
55933;SDS011;41839;41.386;2.082;2023-03-16T10:45:44;1024.47;;;929.63;;
55933;SDS011;41839;41.386;2.082;2023-03-16T10:48:14;1052.97;;;943.87;;
55933;SDS011;41839;41.386;2.082;2023-03-16T10:50:43;1016.05;;;936.97;;
55933;SDS011;41839;41.386;2.082;2023-03-16T10:53:18;1006.85;;;923.97;;
55933;SDS011;41839;41.386;2.082;2023-03-16T10:55:55;988.70;;;914.97;;
55933;SDS011;41839;41.386;2.082;2023-03-16T10:58:28;996.70;;;925.50;;
55933;SDS011;41839;41.386;2.082;2023-03-16T11:00:56;991.88;;;920.60;;
55933;SDS011;41839;41.386;2.082;2023-03-16T11:06:25;954.22;;;894.13;;
55933;SDS011;41839;41.386;2.082;2023-03-16T11:08:44;987.28;;;926.10;;
55933;SDS011;41839;41.386;2.082;2023-03-16T11:11:28;978.22;;;921.30;;
55933;SDS011;41839;41.386;2.082;2023-03-16T11:13:57;919.03;;;866.75;;
55933;SDS011;41839;41.386;2.082;2023-03-16T11:16:27;935.55;;;882.00;;
55933;SDS011;41839;41.386;2.082;2023-03-16T11:19:02;923.67;;;871.25;;
55933;SDS011;41839;41.386;2.082;2023-03-16T11:27:24;931.50;;;878.35;;
55933;SDS011;41839;41.386;2.082;2023-03-16T11:30:13;926.90;;;874.95;;
55933;SDS011;41839;41.386;2.082;2023-03-16T11:32:47;888.17;;;836.42;;
55933;SDS011;41839;41.386;2.082;2023-03-16T11:38:20;864.80;;;815.58;;
55933;SDS011;41839;41.386;2.082;2023-03-16T11:57:51;955.28;;;894.90;;
55933;SDS011;41839;41.386;2.082;2023-03-16T12:00:26;958.47;;;899.95;;
55933;SDS011;41839;41.386;2.082;2023-03-16T12:17:40;927.67;;;873.05;;
55933;SDS011;41839;41.386;2.082;2023-03-16T12:22:43;914.38;;;859.22;;
55933;SDS011;41839;41.386;2.082;2023-03-16T12:25:16;919.35;;;864.67;;
55933;SDS011;41839;41.386;2.082;2023-03-16T12:27:46;912.45;;;857.55;;
55933;SDS011;41839;41.386;2.082;2023-03-16T12:33:14;916.20;;;861.55;;
55933;SDS011;41839;41.386;2.082;2023-03-16T12:36:09;902.55;;;849.47;;
55933;SDS011;41839;41.386;2.082;2023-03-16T12:45:03;883.50;;;829.22;;
55933;SDS011;41839;41.386;2.082;2023-03-16T12:50:06;933.13;;;869.83;;
55933;SDS011;41839;41.386;2.082;2023-03-16T12:52:45;890.33;;;832.05;;
55933;SDS011;41839;41.386;2.082;2023-03-16T12:55:58;781.42;;;735.75;;
55933;SDS011;41839;41.386;2.082;2023-03-16T12:58:03;677.75;;;635.80;;
55933;SDS011;41839;41.386;2.082;2023-03-16T13:00:37;621.83;;;582.33;;
55933;SDS011;41839;41.386;2.082;2023-03-16T13:03:10;696.40;;;652.85;;
55933;SDS011;41839;41.386;2.082;2023-03-16T13:05:43;753.08;;;706.53;;
55933;SDS011;41839;41.386;2.082;2023-03-16T13:08:14;729.58;;;683.38;;
55933;SDS011;41839;41.386;2.082;2023-03-16T13:10:41;805.53;;;755.67;;
55933;SDS011;41839;41.386;2.082;2023-03-16T13:13:23;875.80;;;820.78;;
55933;SDS011;41839;41.386;2.082;2023-03-16T13:15:50;780.45;;;734.90;;
55933;SDS011;41839;41.386;2.082;2023-03-16T13:18:38;743.47;;;699.78;;
55933;SDS011;41839;41.386;2.082;2023-03-16T13:23:59;854.08;;;803.30;;
55933;SDS011;41839;41.386;2.082;2023-03-16T13:26:41;831.50;;;780.38;;
55933;SDS011;41839;41.386;2.082;2023-03-16T13:29:26;886.72;;;831.15;;
55933;SDS011;41839;41.386;2.082;2023-03-16T13:31:53;891.28;;;830.80;;
55933;SDS011;41839;41.386;2.082;2023-03-16T13:34:22;903.17;;;841.88;;
55933;SDS011;41839;41.386;2.082;2023-03-16T13:36:54;881.85;;;823.03;;
55933;SDS011;41839;41.386;2.082;2023-03-16T13:39:22;896.65;;;835.15;;
55933;SDS011;41839;41.386;2.082;2023-03-16T13:41:58;915.80;;;854.42;;
55933;SDS011;41839;41.386;2.082;2023-03-16T13:44:28;924.07;;;862.37;;
55933;SDS011;41839;41.386;2.082;2023-03-16T13:46:55;915.55;;;854.63;;
55933;SDS011;41839;41.386;2.082;2023-03-16T13:49:21;889.08;;;828.85;;
55933;SDS011;41839;41.386;2.082;2023-03-16T13:51:47;911.72;;;850.47;;
55933;SDS011;41839;41.386;2.082;2023-03-16T13:56:48;908.38;;;847.22;;
55933;SDS011;41839;41.386;2.082;2023-03-16T13:59:15;886.47;;;826.22;;
55933;SDS011;41839;41.386;2.082;2023-03-16T14:01:43;909.08;;;848.55;;
55933;SDS011;41839;41.386;2.082;2023-03-16T14:04:10;878.05;;;819.55;;
55933;SDS011;41839;41.386;2.082;2023-03-16T14:06:49;901.55;;;841.90;;
55933;SDS011;41839;41.386;2.082;2023-03-16T14:09:16;877.63;;;818.13;;
55933;SDS011;41839;41.386;2.082;2023-03-16T14:11:46;907.08;;;845.90;;
55933;SDS011;41839;41.386;2.082;2023-03-16T14:14:16;913.17;;;849.35;;
55933;SDS011;41839;41.386;2.082;2023-03-16T14:16:47;912.88;;;849.25;;
55933;SDS011;41839;41.386;2.082;2023-03-16T14:19:17;898.33;;;840.05;;
55933;SDS011;41839;41.386;2.082;2023-03-16T14:21:48;891.03;;;835.25;;
55933;SDS011;41839;41.386;2.082;2023-03-16T14:26:55;880.33;;;825.63;;
55933;SDS011;41839;41.386;2.082;2023-03-16T14:29:26;901.00;;;846.28;;
55933;SDS011;41839;41.386;2.082;2023-03-16T14:31:54;882.15;;;827.83;;
55933;SDS011;41839;41.386;2.082;2023-03-16T14:34:26;880.67;;;827.10;;
55933;SDS011;41839;41.386;2.082;2023-03-16T14:37:09;872.70;;;818.85;;
55933;SDS011;41839;41.386;2.082;2023-03-16T14:39:37;875.05;;;819.85;;
55933;SDS011;41839;41.386;2.082;2023-03-16T14:42:04;898.13;;;842.83;;
55933;SDS011;41839;41.386;2.082;2023-03-16T14:44:38;891.92;;;836.38;;
55933;SDS011;41839;41.386;2.082;2023-03-16T14:47:05;880.78;;;824.85;;
55933;SDS011;41839;41.386;2.082;2023-03-16T14:49:32;899.63;;;841.92;;
55933;SDS011;41839;41.386;2.082;2023-03-16T14:52:01;881.17;;;823.47;;
55933;SDS011;41839;41.386;2.082;2023-03-16T14:54:42;879.53;;;822.65;;
55933;SDS011;41839;41.386;2.082;2023-03-16T14:57:14;896.50;;;839.22;;
55933;SDS011;41839;41.386;2.082;2023-03-16T14:59:41;877.70;;;821.03;;
55933;SDS011;41839;41.386;2.082;2023-03-16T15:02:28;871.63;;;815.25;;
55933;SDS011;41839;41.386;2.082;2023-03-16T15:04:54;882.83;;;825.17;;
55933;SDS011;41839;41.386;2.082;2023-03-16T15:07:22;899.87;;;841.73;;
55933;SDS011;41839;41.386;2.082;2023-03-16T15:09:49;873.38;;;816.38;;
55933;SDS011;41839;41.386;2.082;2023-03-16T15:12:16;870.85;;;813.65;;
55933;SDS011;41839;41.386;2.082;2023-03-16T15:14:46;879.70;;;820.72;;
55933;SDS011;41839;41.386;2.082;2023-03-16T15:17:31;876.30;;;817.58;;
55933;SDS011;41839;41.386;2.082;2023-03-16T15:19:57;889.80;;;829.50;;
55933;SDS011;41839;41.386;2.082;2023-03-16T15:22:32;886.17;;;824.47;;
55933;SDS011;41839;41.386;2.082;2023-03-16T15:25:17;885.10;;;824.90;;
55933;SDS011;41839;41.386;2.082;2023-03-16T15:27:46;902.45;;;840.58;;
55933;SDS011;41839;41.386;2.082;2023-03-16T15:30:15;909.40;;;848.13;;
55933;SDS011;41839;41.386;2.082;2023-03-16T15:32:44;904.25;;;842.90;;
55933;SDS011;41839;41.386;2.082;2023-03-16T15:35:09;872.55;;;812.45;;
55933;SDS011;41839;41.386;2.082;2023-03-16T15:37:35;891.80;;;831.83;;
55933;SDS011;41839;41.386;2.082;2023-03-16T15:50:08;897.05;;;838.67;;
55933;SDS011;41839;41.386;2.082;2023-03-16T15:52:35;900.92;;;842.10;;
55933;SDS011;41839;41.386;2.082;2023-03-16T15:55:03;865.40;;;808.47;;
55933;SDS011;41839;41.386;2.082;2023-03-16T15:57:32;887.78;;;829.92;;
55933;SDS011;41839;41.386;2.082;2023-03-16T15:59:59;857.55;;;802.70;;
55933;SDS011;41839;41.386;2.082;2023-03-16T16:02:27;883.15;;;827.25;;